Time;durP1;ratioP1;P1;durP2;ratioP2;P2;SDS_P1;SDS_P2;PMS_P1;PMS_P2;Temp;Humidity;BMP_temperature;BMP_pressure;BME280_temperature;BME280_humidity;BME280_pressure;Samples;Min_cycle;Max_cycle;Signal;HPM_P1;HPM_P2
2021/07/20 00:00:27;;;;;;;12.15;6.45;;;;;;;15.44;71.19;102307.22;5072708;28;20024;-61
2021/07/20 00:02:56;;;;;;;10.98;6.05;;;;;;;15.40;71.31;102308.31;5056467;28;20109;-60
2021/07/20 00:05:24;;;;;;;12.52;6.63;;;;;;;15.41;71.51;102310.03;5053131;28;20028;-60
2021/07/20 00:07:51;;;;;;;12.95;6.75;;;;;;;15.38;71.55;102303.03;5055662;28;20101;-60
2021/07/20 00:10:24;;;;;;;12.13;6.75;;;;;;;15.35;71.58;102302.28;5072562;28;20023;-60
2021/07/20 00:12:50;;;;;;;14.27;6.30;;;;;;;15.34;71.81;102305.88;5071012;28;20020;-60
2021/07/20 00:15:16;;;;;;;12.88;6.63;;;;;;;15.28;71.91;102307.03;5072882;28;20108;-60
2021/07/20 00:17:43;;;;;;;10.98;6.40;;;;;;;15.24;72.45;102302.72;5072454;28;20074;-61
2021/07/20 00:20:11;;;;;;;15.68;7.00;;;;;;;15.20;72.39;102304.63;5072036;28;20052;-61
2021/07/20 00:22:36;;;;;;;14.18;6.72;;;;;;;15.20;72.83;102312.63;5070928;28;20115;-59
2021/07/20 00:25:02;;;;;;;12.35;6.30;;;;;;;15.21;72.47;102309.03;5072489;28;20107;-60
2021/07/20 00:27:28;;;;;;;11.65;6.28;;;;;;;15.17;72.62;102299.44;5072509;28;20127;-60
2021/07/20 00:29:53;;;;;;;15.02;6.78;;;;;;;15.14;72.84;102304.91;5072241;28;20540;-60
2021/07/20 00:32:18;;;;;;;14.07;6.72;;;;;;;15.10;72.98;102302.41;5072386;28;20029;-60
2021/07/20 00:34:44;;;;;;;12.20;6.95;;;;;;;15.04;73.14;102304.41;5070989;28;20029;-59
2021/07/20 00:37:09;;;;;;;12.60;6.85;;;;;;;15.03;73.71;102302.66;5072436;28;20404;-60
2021/07/20 00:39:34;;;;;;;11.73;6.60;;;;;;;15.03;73.59;102313.34;5072190;28;20115;-60
2021/07/20 00:42:01;;;;;;;12.52;6.75;;;;;;;14.99;73.63;102303.72;5072030;28;20086;-60
2021/07/20 00:44:27;;;;;;;12.25;6.68;;;;;;;14.95;74.17;102306.56;5065904;28;20515;-61
2021/07/20 00:46:52;;;;;;;13.60;7.03;;;;;;;14.91;74.65;102304.03;5063184;28;20037;-60
2021/07/20 00:49:17;;;;;;;15.00;7.40;;;;;;;14.89;74.98;102300.53;5072084;28;20052;-60
2021/07/20 00:51:43;;;;;;;13.98;6.88;;;;;;;14.88;75.44;102306.81;5072555;28;20357;-60
2021/07/20 00:54:09;;;;;;;13.57;7.22;;;;;;;14.95;74.92;102306.56;5072533;28;20115;-60
2021/07/20 00:56:35;;;;;;;13.52;6.68;;;;;;;14.95;74.81;102303.91;5053404;28;20028;-60
2021/07/20 00:59:01;;;;;;;15.65;6.93;;;;;;;14.95;75.07;102303.91;5052215;28;20021;-60
2021/07/20 01:01:26;;;;;;;13.20;7.18;;;;;;;14.95;74.62;102306.56;5065878;28;20119;-60
2021/07/20 01:03:53;;;;;;;16.17;7.25;;;;;;;14.92;75.24;102307.56;5075884;28;20111;-60
2021/07/20 01:06:20;;;;;;;12.60;6.30;;;;;;;14.94;75.15;102300.38;5074466;28;20089;-60
2021/07/20 01:08:47;;;;;;;13.13;6.68;;;;;;;14.92;75.44;102302.22;5075771;28;20107;-60
2021/07/20 01:11:13;;;;;;;14.77;7.35;;;;;;;14.88;75.57;102304.13;5076062;28;20024;-60
2021/07/20 01:13:38;;;;;;;11.82;6.97;;;;;;;14.87;75.88;102299.75;5075582;28;20511;-60
2021/07/20 01:16:06;;;;;;;12.45;6.55;;;;;;;14.82;76.20;102303.50;5072254;28;20083;-60
2021/07/20 01:18:34;;;;;;;15.57;7.35;;;;;;;14.76;76.66;102299.31;5067697;28;20140;-60
2021/07/20 01:20:59;;;;;;;17.05;7.88;;;;;;;14.73;76.77;102310.06;5075845;28;20115;-60
2021/07/20 01:23:36;;;;;;;13.52;7.22;;;;;;;14.70;76.97;102299.53;5075844;28;20024;-60
2021/07/20 01:26:03;;;;;;;16.88;7.80;;;;;;;14.66;77.26;102298.78;5075631;28;20028;-60
2021/07/20 01:28:31;;;;;;;14.75;7.68;;;;;;;14.66;77.43;102297.94;5073282;28;20029;-60
2021/07/20 01:31:03;;;;;;;13.48;7.13;;;;;;;14.63;77.29;102288.22;5075884;28;20082;-59
2021/07/20 01:33:31;;;;;;;13.65;7.22;;;;;;;14.63;77.34;102298.88;5075324;28;20025;-59
2021/07/20 01:36:00;;;;;;;15.05;7.20;;;;;;;14.65;77.04;102290.84;5074239;28;20021;-60
2021/07/20 01:38:26;;;;;;;16.80;8.25;;;;;;;14.65;77.15;102293.53;5075653;28;20472;-60
2021/07/20 01:40:55;;;;;;;17.20;8.18;;;;;;;14.65;77.06;102294.38;5075543;28;20028;-61
2021/07/20 01:43:27;;;;;;;17.27;8.10;;;;;;;14.70;77.05;102299.53;5074863;28;20111;-60
2021/07/20 01:45:55;;;;;;;16.35;8.18;;;;;;;14.77;76.55;102297.50;5055521;28;20414;-60
2021/07/20 01:48:24;;;;;;;17.08;7.82;;;;;;;14.81;75.99;102294.66;5065781;28;20052;-60
2021/07/20 01:50:50;;;;;;;16.73;7.97;;;;;;;14.80;75.70;102294.72;5075368;28;20039;-60
2021/07/20 01:53:15;;;;;;;16.92;8.15;;;;;;;14.74;76.26;102291.38;5075225;28;20032;-60
2021/07/20 01:55:41;;;;;;;16.88;8.25;;;;;;;14.67;76.07;102289.88;5073527;28;20138;-60
2021/07/20 01:58:06;;;;;;;16.45;7.80;;;;;;;14.67;76.14;102292.53;5074540;28;20024;-61
2021/07/20 02:00:31;;;;;;;19.58;9.35;;;;;;;14.61;75.96;102289.22;5075058;28;20125;-61
2021/07/20 02:08:33;;;;;;;17.08;8.52;;;;;;;14.45;77.04;102302.25;5028605;28;20033;-60
2021/07/20 02:11:03;;;;;;;18.10;8.73;;;;;;;14.42;76.75;102297.88;5032750;28;20505;-60
2021/07/20 02:13:39;;;;;;;19.35;9.52;;;;;;;14.40;76.67;102305.09;5031901;28;20091;-60
2021/07/20 02:16:05;;;;;;;19.63;8.10;;;;;;;14.41;76.75;102302.38;5032308;28;20036;-60
2021/07/20 02:18:31;;;;;;;18.75;8.63;;;;;;;14.44;76.56;102296.06;5031757;28;20087;-60
2021/07/20 02:21:01;;;;;;;18.42;8.70;;;;;;;14.44;76.44;102301.38;5032465;28;20042;-60
2021/07/20 02:23:30;;;;;;;21.52;9.35;;;;;;;14.36;76.53;102293.69;5032468;28;20132;-60
2021/07/20 02:25:56;;;;;;;17.50;8.02;;;;;;;14.30;76.68;102301.91;5032604;28;20072;-61
2021/07/20 02:28:23;;;;;;;18.42;8.70;;;;;;;14.19;76.82;102304.94;5031783;28;20151;-60
2021/07/20 02:30:50;;;;;;;19.48;8.57;;;;;;;14.13;77.26;102302.53;5031091;28;20137;-60
2021/07/20 02:33:16;;;;;;;20.95;9.30;;;;;;;14.06;77.71;102312.50;5032494;28;20068;-61
2021/07/20 02:35:42;;;;;;;19.00;9.30;;;;;;;14.03;77.72;102307.31;5032280;28;20029;-60
2021/07/20 02:38:07;;;;;;;22.70;8.35;;;;;;;13.98;77.99;102309.25;5031626;28;20041;-60
2021/07/20 02:40:34;;;;;;;20.50;8.82;;;;;;;13.93;78.36;102306.75;5032133;28;20517;-60
2021/07/20 02:43:01;;;;;;;20.75;8.60;;;;;;;13.88;78.84;102311.38;5032342;28;20069;-60
2021/07/20 02:45:30;;;;;;;22.15;9.57;;;;;;;13.80;78.95;102301.91;5047959;28;20037;-62
2021/07/20 02:47:56;;;;;;;17.23;8.40;;;;;;;13.82;78.96;102316.91;5054380;28;20082;-60
2021/07/20 02:50:23;;;;;;;21.23;9.27;;;;;;;13.79;79.25;102306.38;5071394;28;20036;-60
2021/07/20 02:52:50;;;;;;;19.42;8.98;;;;;;;13.81;79.45;102309.88;5061597;28;20041;-60
2021/07/20 02:55:17;;;;;;;18.92;8.85;;;;;;;13.81;78.97;102306.31;5054031;28;20043;-61
2021/07/20 02:57:44;;;;;;;17.45;8.60;;;;;;;13.81;78.95;102314.31;5054029;28;20025;-60
2021/07/20 03:00:12;;;;;;;25.25;8.85;;;;;;;13.78;79.04;102307.28;5060897;28;20032;-60
2021/07/20 03:02:42;;;;;;;20.50;9.00;;;;;;;13.74;79.15;102303.00;5073878;28;20032;-60
2021/07/20 03:05:09;;;;;;;21.45;9.73;;;;;;;13.73;79.03;102301.25;5073988;28;20048;-59
2021/07/20 03:07:36;;;;;;;19.50;9.10;;;;;;;13.70;79.20;102304.91;5073930;28;20028;-60
2021/07/20 03:10:03;;;;;;;24.23;9.90;;;;;;;13.69;79.40;102307.63;5072097;28;20457;-60
2021/07/20 03:12:30;;;;;;;18.63;9.05;;;;;;;13.65;79.71;102301.53;5073536;28;20051;-60
2021/07/20 03:14:57;;;;;;;19.42;9.25;;;;;;;13.68;79.41;102304.09;5073545;28;20021;-60
2021/07/20 03:17:25;;;;;;;19.15;9.45;;;;;;;13.66;79.48;102303.28;5073751;28;20024;-60
2021/07/20 03:19:52;;;;;;;23.27;9.40;;;;;;;13.64;79.75;102305.09;5073153;28;20107;-60
2021/07/20 03:22:21;;;;;;;21.17;9.52;;;;;;;13.64;79.62;102306.91;5071533;28;20032;-60
2021/07/20 03:24:46;;;;;;;20.50;9.23;;;;;;;13.63;79.37;102313.16;5061795;28;20021;-60
2021/07/20 03:27:12;;;;;;;20.27;9.05;;;;;;;13.62;79.74;102308.75;5053677;28;20036;-60
2021/07/20 03:29:42;;;;;;;22.05;9.45;;;;;;;13.63;79.57;102310.50;5053481;28;20028;-59
2021/07/20 03:32:10;;;;;;;19.80;8.77;;;;;;;13.62;79.32;102306.97;5065245;28;20028;-60
2021/07/20 03:34:36;;;;;;;22.35;10.18;;;;;;;13.59;79.45;102309.72;5073065;28;20028;-60
2021/07/20 03:37:03;;;;;;;20.88;8.90;;;;;;;13.58;79.49;102306.19;5073280;28;20024;-60
2021/07/20 03:39:28;;;;;;;21.50;9.45;;;;;;;13.57;79.20;102312.44;5073137;28;20020;-59
2021/07/20 03:41:53;;;;;;;21.35;8.85;;;;;;;13.55;79.58;102298.31;5072440;28;20028;-60
2021/07/20 03:44:19;;;;;;;19.20;9.25;;;;;;;13.53;79.42;102307.25;5073099;28;20070;-60
2021/07/20 03:46:45;;;;;;;21.00;9.27;;;;;;;13.54;79.42;102309.00;5054599;28;20037;-60
2021/07/20 03:49:12;;;;;;;21.17;9.50;;;;;;;13.55;79.62;102306.28;5072695;28;20112;-60
2021/07/20 03:51:38;;;;;;;20.40;9.05;;;;;;;13.55;79.11;102297.44;5072642;28;20365;-60
2021/07/20 03:54:07;;;;;;;22.55;10.10;;;;;;;13.54;79.28;102301.03;5053908;28;20457;-60
2021/07/20 03:56:33;;;;;;;23.10;10.20;;;;;;;13.52;79.56;102311.72;5053370;28;20032;-60
2021/07/20 03:59:00;;;;;;;21.73;9.70;;;;;;;13.51;79.37;102301.13;5052786;28;20429;-60
2021/07/20 04:01:31;;;;;;;19.30;10.27;;;;;;;13.52;79.31;102316.19;5052734;28;20107;-61
2021/07/20 04:03:58;;;;;;;19.63;9.13;;;;;;;13.53;79.50;102304.59;5066171;28;20036;-60
2021/07/20 04:06:25;;;;;;;25.45;9.70;;;;;;;13.57;79.38;102312.44;5072901;28;20025;-61
2021/07/20 04:08:52;;;;;;;22.67;9.98;;;;;;;13.57;78.95;102312.44;5072688;28;20032;-61
2021/07/20 04:11:17;;;;;;;19.63;9.90;;;;;;;13.57;79.22;102315.09;5072607;28;20029;-61
2021/07/20 04:13:43;;;;;;;21.42;9.88;;;;;;;13.58;79.39;102302.66;5068550;28;20440;-60
2021/07/20 04:16:10;;;;;;;21.95;9.60;;;;;;;13.63;78.80;102307.81;5052500;28;20031;-60
2021/07/20 04:18:37;;;;;;;20.20;9.73;;;;;;;13.65;78.74;102308.66;5052172;28;20051;-60
2021/07/20 04:21:06;;;;;;;22.27;9.75;;;;;;;13.69;78.46;102303.16;5052497;28;20029;-61
2021/07/20 04:23:33;;;;;;;23.88;9.75;;;;;;;13.75;78.00;102310.06;5038340;28;20028;-61
2021/07/20 04:25:59;;;;;;;21.75;9.20;;;;;;;13.77;78.03;102303.78;5071195;28;20039;-60
2021/07/20 04:28:26;;;;;;;24.15;10.18;;;;;;;13.78;78.10;102307.28;5072528;28;20456;-60
2021/07/20 04:30:53;;;;;;;18.48;8.88;;;;;;;13.79;77.95;102303.72;5072303;28;20060;-60
2021/07/20 04:33:25;;;;;;;21.15;9.55;;;;;;;13.85;77.80;102303.50;5071939;28;20032;-60
2021/07/20 04:35:52;;;;;;;24.50;9.85;;;;;;;13.87;77.78;102303.44;5061720;28;20032;-61
2021/07/20 04:38:18;;;;;;;25.80;9.60;;;;;;;13.90;77.91;102301.56;5051632;28;20074;-61
2021/07/20 04:40:44;;;;;;;21.90;10.10;;;;;;;14.02;77.34;102310.88;5052558;28;20025;-60
2021/07/20 04:43:12;;;;;;;21.77;9.40;;;;;;;14.09;76.90;102301.75;5052330;28;20079;-60
2021/07/20 04:45:39;;;;;;;20.33;9.45;;;;;;;14.17;76.96;102309.47;5065452;28;20020;-60
2021/07/20 04:48:06;;;;;;;20.52;9.65;;;;;;;14.23;76.30;102308.38;5071859;28;20032;-60
2021/07/20 04:50:31;;;;;;;20.63;9.63;;;;;;;14.29;76.03;102310.81;5071824;28;20027;-60
2021/07/20 04:52:59;;;;;;;21.70;9.73;;;;;;;14.35;75.92;102310.59;5072459;28;20029;-60
2021/07/20 04:55:26;;;;;;;25.35;9.90;;;;;;;14.39;75.36;102306.88;5071959;28;20032;-61
2021/07/20 04:57:52;;;;;;;20.75;9.05;;;;;;;14.46;75.59;102312.84;5055577;28;20057;-60
2021/07/20 05:00:17;;;;;;;18.10;8.95;;;;;;;14.57;74.70;102312.44;5063923;28;20075;-61
2021/07/20 05:02:45;;;;;;;20.67;9.80;;;;;;;14.66;74.70;102309.44;5071848;28;20056;-61
2021/07/20 05:05:15;;;;;;;21.98;9.20;;;;;;;14.71;74.46;102318.13;5071823;28;20111;-61
2021/07/20 05:07:41;;;;;;;19.60;9.23;;;;;;;14.77;74.48;102319.72;5062482;28;20104;-61
2021/07/20 05:10:10;;;;;;;18.92;8.82;;;;;;;14.85;73.94;102308.75;5071823;28;20031;-61
2021/07/20 05:12:36;;;;;;;18.92;9.10;;;;;;;14.94;73.12;102319.03;5071911;28;20020;-61
2021/07/20 05:15:01;;;;;;;22.65;9.27;;;;;;;14.99;73.88;102325.06;5071964;28;20071;-61
2021/07/20 05:17:27;;;;;;;20.42;10.43;;;;;;;14.97;74.02;102316.25;5069963;28;20020;-60
2021/07/20 05:19:53;;;;;;;18.25;8.93;;;;;;;15.03;73.66;102316.00;5071144;28;20049;-61
2021/07/20 05:22:20;;;;;;;21.88;9.27;;;;;;;15.14;73.24;102312.03;5071388;28;20079;-61
2021/07/20 05:24:46;;;;;;;19.48;9.00;;;;;;;15.26;71.93;102319.53;5071901;28;20024;-61
2021/07/20 05:27:12;;;;;;;19.63;8.85;;;;;;;15.31;72.41;102314.88;5071274;28;20029;-63
2021/07/20 05:29:39;;;;;;;18.70;9.15;;;;;;;15.34;72.96;102313.88;5060728;28;20099;-63
2021/07/20 05:32:06;;;;;;;17.25;9.13;;;;;;;15.39;71.83;102315.41;5052410;28;20056;-60
2021/07/20 05:34:31;;;;;;;18.60;8.85;;;;;;;15.55;71.32;102313.00;5052449;28;20057;-60
2021/07/20 05:36:57;;;;;;;17.88;8.45;;;;;;;15.61;70.93;102309.19;5070437;28;20064;-61
2021/07/20 05:39:24;;;;;;;19.48;9.90;;;;;;;15.71;70.90;102317.69;5062094;28;21427;-60
2021/07/20 05:41:50;;;;;;;17.13;8.40;;;;;;;15.80;70.87;102313.75;5065761;28;20070;-63
2021/07/20 05:44:17;;;;;;;19.10;9.18;;;;;;;15.81;70.06;102319.03;5068735;28;20024;-63
2021/07/20 05:46:44;;;;;;;20.58;9.18;;;;;;;15.89;70.16;102319.59;5068944;28;20027;-61
2021/07/20 05:49:14;;;;;;;17.80;9.10;;;;;;;15.97;69.91;102319.25;5068532;28;20067;-61
2021/07/20 05:51:41;;;;;;;19.73;9.10;;;;;;;16.11;68.79;102323.97;5074074;28;20048;-61
2021/07/20 05:54:07;;;;;;;20.75;9.25;;;;;;;16.19;69.37;102315.63;5073751;28;20040;-60
2021/07/20 05:56:34;;;;;;;19.63;9.27;;;;;;;16.30;67.42;102318.66;5074803;28;20082;-61
2021/07/20 05:59:01;;;;;;;18.60;8.93;;;;;;;16.37;67.12;102317.47;5066992;28;20042;-61
2021/07/20 06:01:29;;;;;;;18.33;9.00;;;;;;;16.43;68.19;102323.47;5055957;28;20056;-60
2021/07/20 06:03:56;;;;;;;19.38;8.98;;;;;;;16.51;67.79;102319.50;5071768;28;20025;-61
2021/07/20 06:06:26;;;;;;;18.13;7.72;;;;;;;16.59;67.67;102323.63;5072351;28;20036;-61
2021/07/20 06:08:53;;;;;;;17.27;8.07;;;;;;;16.68;66.73;102320.53;5063319;28;20040;-60
2021/07/20 06:11:20;;;;;;;16.45;8.63;;;;;;;16.71;67.49;102321.25;5055468;28;20484;-61
2021/07/20 06:13:46;;;;;;;14.85;7.35;;;;;;;16.79;67.36;102333.38;5054693;28;20053;-61
2021/07/20 06:16:12;;;;;;;16.33;7.43;;;;;;;16.84;65.43;102326.00;5055893;28;20063;-61
2021/07/20 06:18:38;;;;;;;14.95;7.82;;;;;;;16.87;64.50;102325.88;5066134;28;20415;-61
2021/07/20 06:21:07;;;;;;;13.85;7.20;;;;;;;16.95;66.22;102328.22;5074728;28;20029;-61
2021/07/20 06:23:37;;;;;;;12.95;7.72;;;;;;;17.04;64.72;102333.09;5055342;28;20025;-61
2021/07/20 06:26:02;;;;;;;14.38;7.80;;;;;;;17.10;65.70;102331.97;5055394;28;20024;-60
2021/07/20 06:28:29;;;;;;;17.90;7.93;;;;;;;17.07;65.38;102327.59;5063410;28;20066;-61
2021/07/20 06:30:55;;;;;;;14.80;7.38;;;;;;;17.16;64.26;102332.53;5054391;28;20061;-62
2021/07/20 06:33:21;;;;;;;13.55;7.28;;;;;;;17.32;64.58;102332.63;5054179;28;20078;-61
2021/07/20 06:35:48;;;;;;;13.55;7.10;;;;;;;17.45;63.93;102334.69;5071535;28;20615;-61
2021/07/20 06:38:18;;;;;;;12.48;6.80;;;;;;;17.45;62.52;102335.53;5072504;28;20040;-60
2021/07/20 06:40:47;;;;;;;13.23;7.10;;;;;;;17.48;61.79;102340.75;5069083;28;20500;-61
2021/07/20 06:43:14;;;;;;;17.08;7.53;;;;;;;17.55;61.54;102345.81;5068902;28;20032;-61
2021/07/20 06:45:42;;;;;;;14.70;7.28;;;;;;;17.66;61.13;102343.44;5074460;28;20021;-60
2021/07/20 06:48:11;;;;;;;14.07;7.50;;;;;;;17.71;60.09;102346.78;5060412;28;20086;-63
2021/07/20 06:50:37;;;;;;;13.82;6.93;;;;;;;17.79;61.20;102341.03;5053932;28;20029;-60
2021/07/20 06:53:02;;;;;;;14.32;6.80;;;;;;;17.89;60.47;102336.91;5059280;28;20757;-60
2021/07/20 06:55:28;;;;;;;13.35;7.50;;;;;;;17.98;59.38;102335.56;5067114;28;20031;-63
2021/07/20 06:57:55;;;;;;;11.80;6.63;;;;;;;18.10;59.49;102340.31;5071300;28;20039;-59
2021/07/20 07:00:20;;;;;;;12.50;7.07;;;;;;;18.11;57.97;102339.38;5070834;28;20110;-59
2021/07/20 07:02:54;;;;;;;11.00;6.90;;;;;;;18.08;57.58;102349.38;5072798;28;20067;-62
2021/07/20 07:05:22;;;;;;;12.88;6.85;;;;;;;18.00;56.62;102347.94;5066556;28;20553;-60
2021/07/20 07:07:49;;;;;;;14.30;6.88;;;;;;;17.92;57.57;102342.09;5068059;28;20020;-62
2021/07/20 07:10:17;;;;;;;14.13;6.90;;;;;;;17.84;56.84;102347.00;5060495;28;20051;-59
2021/07/20 07:12:46;;;;;;;10.70;6.20;;;;;;;17.85;56.87;102346.94;5070025;28;20155;-61
2021/07/20 07:15:12;;;;;;;12.40;7.10;;;;;;;17.94;58.07;102350.09;5060976;28;20025;-60
2021/07/20 07:17:38;;;;;;;12.77;6.80;;;;;;;18.07;56.48;102353.00;5065898;28;20024;-61
2021/07/20 07:20:05;;;;;;;13.50;6.75;;;;;;;18.15;57.80;102351.66;5063392;28;20039;-61
2021/07/20 07:22:32;;;;;;;11.70;6.90;;;;;;;18.29;56.66;102353.59;5070230;28;20392;-60
2021/07/20 07:24:58;;;;;;;12.27;7.05;;;;;;;18.32;56.78;102352.56;5072853;28;20048;-60
2021/07/20 07:27:24;;;;;;;13.50;6.70;;;;;;;18.46;56.00;102351.81;5073318;28;20514;-60
2021/07/20 07:29:53;;;;;;;14.38;7.30;;;;;;;18.47;55.71;102354.41;5073117;28;20406;-60
2021/07/20 07:32:20;;;;;;;10.43;6.63;;;;;;;18.52;55.68;102359.53;5065751;28;20056;-60
2021/07/20 07:34:46;;;;;;;12.23;6.85;;;;;;;18.69;55.06;102358.63;5061136;28;20021;-60
2021/07/20 07:37:14;;;;;;;11.52;6.20;;;;;;;18.61;56.19;102355.50;5072916;28;20031;-61
2021/07/20 07:39:41;;;;;;;11.90;6.57;;;;;;;18.72;56.49;102349.53;5072922;28;20430;-61
2021/07/20 07:42:07;;;;;;;13.20;6.60;;;;;;;18.83;55.73;102355.16;5053084;28;20492;-62
2021/07/20 07:44:33;;;;;;;10.93;6.53;;;;;;;18.91;55.24;102358.31;5066094;28;20848;-62
2021/07/20 07:46:59;;;;;;;12.05;6.70;;;;;;;19.05;54.28;102351.31;5065435;28;20033;-62
2021/07/20 07:49:27;;;;;;;12.55;6.75;;;;;;;19.09;54.60;102353.75;5064474;28;20051;-61
2021/07/20 07:51:53;;;;;;;11.73;6.20;;;;;;;19.14;54.28;102354.34;5068208;28;20020;-60
2021/07/20 07:54:19;;;;;;;10.90;5.90;;;;;;;19.18;53.61;102355.00;5060587;28;20028;-60
2021/07/20 07:56:46;;;;;;;10.02;5.80;;;;;;;19.26;53.91;102349.19;5058898;28;20055;-60
2021/07/20 07:59:13;;;;;;;10.23;5.80;;;;;;;19.40;54.47;102354.66;5054643;28;20031;-61
2021/07/20 08:01:46;;;;;;;11.07;6.07;;;;;;;19.51;53.53;102361.22;5071408;28;20064;-60
2021/07/20 08:04:17;;;;;;;10.18;5.88;;;;;;;19.45;52.89;102355.25;5064048;28;20036;-60
2021/07/20 08:06:45;;;;;;;9.57;5.35;;;;;;;19.54;53.05;102359.22;5052805;28;20108;-61
2021/07/20 08:09:13;;;;;;;10.63;6.03;;;;;;;19.55;52.59;102360.94;5052636;28;20025;-61
2021/07/20 08:11:42;;;;;;;11.65;6.07;;;;;;;19.68;53.85;102357.53;5052355;28;20056;-61
2021/07/20 08:14:08;;;;;;;11.50;6.60;;;;;;;19.72;52.60;102361.75;5052764;28;20025;-60
2021/07/20 08:16:41;;;;;;;12.25;6.18;;;;;;;19.74;52.88;102355.34;5069633;28;20028;-61
2021/07/20 08:19:07;;;;;;;9.45;5.68;;;;;;;19.79;52.65;102361.28;5062691;28;20037;-60
2021/07/20 08:21:32;;;;;;;10.57;6.00;;;;;;;19.92;52.48;102363.28;5052245;28;20035;-61
2021/07/20 08:23:58;;;;;;;12.30;6.30;;;;;;;19.96;52.35;102375.59;5063648;28;20358;-61
2021/07/20 08:26:28;;;;;;;10.90;6.40;;;;;;;19.88;53.89;102362.59;5059992;28;20028;-62
2021/07/20 08:29:01;;;;;;;9.82;6.05;;;;;;;19.91;52.49;102362.44;5057931;28;20117;-62
2021/07/20 08:31:32;;;;;;;11.48;6.00;;;;;;;19.94;51.42;102356.00;5068818;28;20054;-62
2021/07/20 08:33:59;;;;;;;10.05;6.05;;;;;;;19.93;52.41;102362.34;5062377;28;20108;-61
2021/07/20 08:36:28;;;;;;;10.45;6.10;;;;;;;20.09;53.00;102363.16;5063553;28;20031;-61
2021/07/20 08:38:56;;;;;;;11.65;6.70;;;;;;;20.11;52.61;102363.91;5066883;28;20040;-60
2021/07/20 08:41:46;;;;;;;12.65;6.63;;;;;;;20.30;52.79;102352.88;5068352;28;20431;-63
2021/07/20 08:44:35;;;;;;;12.60;6.85;;;;;;;20.44;51.42;102356.53;5072200;28;20028;-61
2021/07/20 08:47:19;;;;;;;11.98;6.72;;;;;;;20.54;50.90;102356.84;5068982;28;20047;-62
2021/07/20 08:50:07;;;;;;;14.43;6.72;;;;;;;21.54;49.24;102350.31;5055550;28;20040;-61
2021/07/20 08:52:41;;;;;;;11.95;7.00;;;;;;;22.62;46.59;102350.09;5059053;28;20032;-61
2021/07/20 08:55:13;;;;;;;11.70;6.35;;;;;;;23.94;43.30;102354.75;5071084;28;20031;-62
2021/07/20 08:57:41;;;;;;;12.43;6.72;;;;;;;25.15;41.16;102353.25;5072333;28;20025;-61
2021/07/20 09:00:13;;;;;;;13.38;6.72;;;;;;;26.15;38.35;102350.19;5067553;28;20041;-61
2021/07/20 09:02:45;;;;;;;11.32;6.80;;;;;;;26.55;36.46;102353.06;5067761;28;20043;-62
2021/07/20 09:05:21;;;;;;;11.00;6.88;;;;;;;26.54;36.22;102357.66;5063426;28;20033;-64
2021/07/20 09:08:03;;;;;;;10.30;6.35;;;;;;;26.75;37.20;102352.19;5066009;28;20047;-62
2021/07/20 09:10:37;;;;;;;10.93;6.82;;;;;;;27.43;35.92;102356.00;5062262;28;20174;-61
2021/07/20 09:13:11;;;;;;;11.35;6.53;;;;;;;27.59;35.27;102359.00;5069353;28;20021;-61
2021/07/20 09:15:44;;;;;;;12.57;6.63;;;;;;;27.13;34.78;102360.56;5062589;28;20080;-61
2021/07/20 09:18:21;;;;;;;10.45;6.55;;;;;;;26.79;35.88;102361.78;5065026;28;20039;-63
2021/07/20 09:20:50;;;;;;;10.10;6.10;;;;;;;27.07;35.92;102362.00;5070143;28;20040;-61
2021/07/20 09:23:43;;;;;;;11.73;7.18;;;;;;;27.27;36.81;102354.69;5072612;28;20384;-61
2021/07/20 09:26:14;;;;;;;15.93;7.10;;;;;;;27.49;34.49;102355.44;5074191;28;20051;-63
2021/07/20 09:28:49;;;;;;;9.85;6.90;;;;;;;27.09;36.30;102353.69;5076102;28;20029;-63
2021/07/20 09:31:47;;;;;;;10.70;6.38;;;;;;;27.07;36.32;102353.84;5075983;28;20028;-62
2021/07/20 09:34:50;;;;;;;11.55;6.80;;;;;;;27.46;36.56;102358.47;5074419;28;20115;-63
2021/07/20 09:37:56;;;;;;;13.07;6.05;;;;;;;27.84;34.47;102370.31;5066156;28;20061;-61
2021/07/20 09:40:31;;;;;;;12.05;6.68;;;;;;;27.71;34.10;102364.31;5019553;28;20409;-63
2021/07/20 09:42:56;;;;;;;11.55;6.28;;;;;;;27.38;36.32;102361.00;5030156;28;20037;-63
2021/07/20 09:45:30;;;;;;;11.43;6.80;;;;;;;27.86;35.65;102359.28;5027420;28;20115;-62
2021/07/20 09:47:56;;;;;;;12.35;7.50;;;;;;;27.80;35.31;102355.25;5028116;28;20053;-61
2021/07/20 09:50:25;;;;;;;11.40;6.90;;;;;;;27.84;35.30;102358.56;5031553;28;20029;-61
2021/07/20 09:53:09;;;;;;;10.77;7.00;;;;;;;28.19;34.15;102357.06;5029881;28;20295;-61
2021/07/20 09:56:02;;;;;;;11.20;6.55;;;;;;;28.18;35.23;102360.81;5032136;28;20052;-62
2021/07/20 09:58:54;;;;;;;9.88;6.57;;;;;;;28.57;34.85;102350.59;5018175;28;20103;-63
2021/07/20 10:01:38;;;;;;;10.82;6.43;;;;;;;28.85;32.88;102357.94;5025532;28;20083;-61
2021/07/20 10:04:10;;;;;;;11.23;6.88;;;;;;;28.28;35.26;102364.34;5025785;28;20053;-61
2021/07/20 10:06:47;;;;;;;10.15;6.82;;;;;;;27.45;34.49;102364.91;5029885;28;20488;-61
2021/07/20 10:09:21;;;;;;;12.38;7.20;;;;;;;26.81;35.98;102359.75;5026619;28;20029;-64
2021/07/20 10:12:01;;;;;;;9.00;5.95;;;;;;;26.93;36.42;102359.66;5028222;28;20040;-61
2021/07/20 10:14:27;;;;;;;11.63;6.90;;;;;;;27.11;36.33;102359.81;5031788;28;20120;-61
2021/07/20 10:17:13;;;;;;;11.10;7.10;;;;;;;27.25;35.81;102362.16;5042854;28;20242;-63
2021/07/20 10:20:23;;;;;;;11.02;6.93;;;;;;;27.20;37.50;102363.56;5060920;28;20300;-64
2021/07/20 10:22:52;;;;;;;9.67;6.47;;;;;;;27.19;35.54;102359.13;4972676;28;20046;-62
2021/07/20 10:25:29;;;;;;;12.52;7.25;;;;;;;27.05;35.28;102355.81;4970914;28;20293;-61
2021/07/20 10:28:06;;;;;;;12.75;6.85;;;;;;;27.09;35.42;102356.41;4973373;28;20483;-62
2021/07/20 10:30:36;;;;;;;11.93;6.63;;;;;;;27.19;35.62;102345.53;4972423;28;20066;-62
2021/07/20 10:33:13;;;;;;;10.90;6.43;;;;;;;27.41;35.87;102339.84;4972750;28;20089;-62
2021/07/20 10:36:08;;;;;;;10.23;6.88;;;;;;;27.29;34.52;102344.53;4972066;28;20090;-61
2021/07/20 10:38:39;;;;;;;10.32;6.13;;;;;;;28.06;34.11;102344.63;4973264;28;20046;-61
2021/07/20 10:41:06;;;;;;;11.57;6.95;;;;;;;28.20;34.77;102351.47;4973038;28;20479;-63
2021/07/20 10:43:39;;;;;;;11.10;6.57;;;;;;;28.08;33.39;102344.47;4973244;28;20565;-63
2021/07/20 10:46:08;;;;;;;10.52;6.45;;;;;;;27.78;35.03;102338.22;4972850;28;20039;-62
2021/07/20 10:48:40;;;;;;;9.25;6.10;;;;;;;28.06;35.39;102341.91;4965649;28;20039;-62
2021/07/20 10:51:21;;;;;;;9.32;6.38;;;;;;;28.73;33.56;102338.22;4972388;28;20043;-61
2021/07/20 10:54:15;;;;;;;10.30;6.50;;;;;;;28.97;33.17;102332.16;4961333;28;20054;-61
2021/07/20 10:56:52;;;;;;;9.00;5.75;;;;;;;29.68;32.85;102322.25;4971318;28;20026;-61
2021/07/20 10:59:48;;;;;;;10.25;5.85;;;;;;;29.50;31.34;102327.72;5005762;28;20052;-61
2021/07/20 11:02:47;;;;;;;10.98;6.22;;;;;;;28.91;32.42;102330.06;5071321;28;20033;-62
2021/07/20 11:05:15;;;;;;;10.32;6.45;;;;;;;28.44;33.16;102336.44;5059147;28;20091;-61
2021/07/20 11:07:48;;;;;;;10.73;6.38;;;;;;;28.90;35.05;102339.25;5073886;28;20020;-61
2021/07/20 11:10:17;;;;;;;12.05;7.00;;;;;;;29.16;31.79;102333.88;5055615;28;20059;-61
2021/07/20 11:12:45;;;;;;;10.30;6.22;;;;;;;28.15;33.11;102336.56;5072000;28;20021;-61
2021/07/20 11:15:12;;;;;;;11.95;6.80;;;;;;;27.61;35.52;102324.38;5073485;28;20024;-62
2021/07/20 11:17:40;;;;;;;9.30;6.03;;;;;;;28.07;34.63;102321.84;5073684;28;20071;-61
2021/07/20 11:20:09;;;;;;;9.80;6.47;;;;;;;28.92;33.49;102318.97;5056622;28;20040;-62
2021/07/20 11:22:37;;;;;;;10.70;6.88;;;;;;;29.14;31.65;102321.41;5054832;28;20032;-62
2021/07/20 11:25:04;;;;;;;9.55;5.88;;;;;;;28.77;33.51;102321.41;5054506;28;20032;-61
2021/07/20 11:27:30;;;;;;;8.95;6.03;;;;;;;28.23;33.24;102320.34;5053655;28;20061;-62
2021/07/20 11:29:56;;;;;;;10.18;6.05;;;;;;;27.56;36.84;102320.34;5053317;28;20043;-62
2021/07/20 11:32:27;;;;;;;9.90;6.25;;;;;;;27.98;35.32;102316.41;5065169;28;20154;-61